sensor_id;sensor_type;location;lat;lon;timestamp;temperature;humidity
6256;DHT22;3161;48.794;9.784;2022-08-03T00:01:15;19.80;99.90
6256;DHT22;3161;48.794;9.784;2022-08-03T00:03:43;19.80;99.90
6256;DHT22;3161;48.794;9.784;2022-08-03T00:06:11;19.80;99.90
6256;DHT22;3161;48.794;9.784;2022-08-03T00:08:38;19.70;99.90
6256;DHT22;3161;48.794;9.784;2022-08-03T00:11:06;19.70;99.90
6256;DHT22;3161;48.794;9.784;2022-08-03T00:13:34;19.70;99.90
6256;DHT22;3161;48.794;9.784;2022-08-03T00:16:02;19.60;99.90
6256;DHT22;3161;48.794;9.784;2022-08-03T00:18:29;19.60;99.90
6256;DHT22;3161;48.794;9.784;2022-08-03T00:20:57;19.60;99.90
6256;DHT22;3161;48.794;9.784;2022-08-03T00:23:24;19.50;99.90
6256;DHT22;3161;48.794;9.784;2022-08-03T00:25:52;19.60;99.90
6256;DHT22;3161;48.794;9.784;2022-08-03T00:28:20;19.50;99.90
6256;DHT22;3161;48.794;9.784;2022-08-03T00:30:47;19.50;99.90
6256;DHT22;3161;48.794;9.784;2022-08-03T00:33:15;19.40;99.90
6256;DHT22;3161;48.794;9.784;2022-08-03T00:35:43;19.40;99.90
6256;DHT22;3161;48.794;9.784;2022-08-03T00:38:11;19.40;99.90
6256;DHT22;3161;48.794;9.784;2022-08-03T00:40:39;19.40;99.90
6256;DHT22;3161;48.794;9.784;2022-08-03T00:43:08;19.30;99.90
6256;DHT22;3161;48.794;9.784;2022-08-03T00:45:38;19.30;99.90
6256;DHT22;3161;48.794;9.784;2022-08-03T00:48:07;19.30;99.90
6256;DHT22;3161;48.794;9.784;2022-08-03T00:50:41;19.20;99.90
6256;DHT22;3161;48.794;9.784;2022-08-03T00:53:06;19.20;99.90
6256;DHT22;3161;48.794;9.784;2022-08-03T00:55:35;19.20;99.90
6256;DHT22;3161;48.794;9.784;2022-08-03T00:58:04;19.10;99.90
6256;DHT22;3161;48.794;9.784;2022-08-03T01:00:35;19.10;99.90
6256;DHT22;3161;48.794;9.784;2022-08-03T01:03:08;19.10;99.90
6256;DHT22;3161;48.794;9.784;2022-08-03T01:08:27;19.00;99.90
6256;DHT22;3161;48.794;9.784;2022-08-03T01:16:18;18.90;99.90
6256;DHT22;3161;48.794;9.784;2022-08-03T01:19:04;18.90;99.90
6256;DHT22;3161;48.794;9.784;2022-08-03T01:21:38;18.80;99.90
6256;DHT22;3161;48.794;9.784;2022-08-03T01:24:28;18.80;99.90
6256;DHT22;3161;48.794;9.784;2022-08-03T01:27:06;18.80;99.90
6256;DHT22;3161;48.794;9.784;2022-08-03T01:29:51;18.80;99.90
6256;DHT22;3161;48.794;9.784;2022-08-03T01:35:06;18.70;99.90
6256;DHT22;3161;48.794;9.784;2022-08-03T01:37:41;18.70;99.90
6256;DHT22;3161;48.794;9.784;2022-08-03T01:40:11;18.60;99.90
6256;DHT22;3161;48.794;9.784;2022-08-03T01:42:40;18.60;99.90
6256;DHT22;3161;48.794;9.784;2022-08-03T01:45:11;18.60;99.90
6256;DHT22;3161;48.794;9.784;2022-08-03T01:47:40;18.60;99.90
6256;DHT22;3161;48.794;9.784;2022-08-03T01:50:10;18.50;99.90
6256;DHT22;3161;48.794;9.784;2022-08-03T01:52:39;18.50;99.90
6256;DHT22;3161;48.794;9.784;2022-08-03T01:55:09;18.50;99.90
6256;DHT22;3161;48.794;9.784;2022-08-03T01:57:40;18.50;99.90
6256;DHT22;3161;48.794;9.784;2022-08-03T02:00:10;18.50;99.90
6256;DHT22;3161;48.794;9.784;2022-08-03T02:02:38;18.50;99.90
6256;DHT22;3161;48.794;9.784;2022-08-03T02:05:08;18.50;99.90
6256;DHT22;3161;48.794;9.784;2022-08-03T02:07:39;18.50;99.90
6256;DHT22;3161;48.794;9.784;2022-08-03T02:10:09;18.50;99.90
6256;DHT22;3161;48.794;9.784;2022-08-03T02:12:39;18.50;99.90
6256;DHT22;3161;48.794;9.784;2022-08-03T02:15:09;18.50;99.90
6256;DHT22;3161;48.794;9.784;2022-08-03T02:17:37;18.40;99.90
6256;DHT22;3161;48.794;9.784;2022-08-03T02:20:08;18.40;99.90
6256;DHT22;3161;48.794;9.784;2022-08-03T02:22:41;18.40;99.90
6256;DHT22;3161;48.794;9.784;2022-08-03T02:25:14;18.40;99.90
6256;DHT22;3161;48.794;9.784;2022-08-03T02:27:45;18.30;99.90
6256;DHT22;3161;48.794;9.784;2022-08-03T02:30:13;18.30;99.90
6256;DHT22;3161;48.794;9.784;2022-08-03T02:32:43;18.30;99.90
6256;DHT22;3161;48.794;9.784;2022-08-03T02:35:13;18.30;99.90
6256;DHT22;3161;48.794;9.784;2022-08-03T02:37:46;18.20;99.90
6256;DHT22;3161;48.794;9.784;2022-08-03T02:40:17;18.20;99.90
6256;DHT22;3161;48.794;9.784;2022-08-03T02:42:46;18.20;99.90
6256;DHT22;3161;48.794;9.784;2022-08-03T02:45:17;18.20;99.90
6256;DHT22;3161;48.794;9.784;2022-08-03T02:47:46;18.20;99.90
6256;DHT22;3161;48.794;9.784;2022-08-03T02:50:15;18.20;99.90
6256;DHT22;3161;48.794;9.784;2022-08-03T02:52:45;18.10;99.90
6256;DHT22;3161;48.794;9.784;2022-08-03T02:55:14;18.10;99.90
6256;DHT22;3161;48.794;9.784;2022-08-03T02:57:44;18.10;99.90
6256;DHT22;3161;48.794;9.784;2022-08-03T03:00:13;18.10;99.90
6256;DHT22;3161;48.794;9.784;2022-08-03T03:02:41;18.10;99.90
6256;DHT22;3161;48.794;9.784;2022-08-03T03:05:10;18.10;99.90
6256;DHT22;3161;48.794;9.784;2022-08-03T03:07:39;18.00;99.90
6256;DHT22;3161;48.794;9.784;2022-08-03T03:10:08;18.00;99.90
6256;DHT22;3161;48.794;9.784;2022-08-03T03:12:37;18.00;99.90
6256;DHT22;3161;48.794;9.784;2022-08-03T03:15:07;17.90;99.90
6256;DHT22;3161;48.794;9.784;2022-08-03T03:17:36;17.90;99.90
6256;DHT22;3161;48.794;9.784;2022-08-03T03:20:07;17.90;99.90
6256;DHT22;3161;48.794;9.784;2022-08-03T03:22:35;17.80;99.90
6256;DHT22;3161;48.794;9.784;2022-08-03T03:25:04;17.80;99.90
6256;DHT22;3161;48.794;9.784;2022-08-03T03:27:33;17.80;99.90
6256;DHT22;3161;48.794;9.784;2022-08-03T03:30:02;17.80;99.90
6256;DHT22;3161;48.794;9.784;2022-08-03T03:32:30;17.70;99.90
6256;DHT22;3161;48.794;9.784;2022-08-03T03:34:58;17.70;99.90
6256;DHT22;3161;48.794;9.784;2022-08-03T03:37:26;17.70;99.90
6256;DHT22;3161;48.794;9.784;2022-08-03T03:39:54;17.70;99.90
6256;DHT22;3161;48.794;9.784;2022-08-03T03:42:22;17.70;99.90
6256;DHT22;3161;48.794;9.784;2022-08-03T03:44:51;17.70;99.90
6256;DHT22;3161;48.794;9.784;2022-08-03T03:47:18;17.60;99.90
6256;DHT22;3161;48.794;9.784;2022-08-03T03:49:46;17.70;99.90
6256;DHT22;3161;48.794;9.784;2022-08-03T03:52:15;17.70;99.90
6256;DHT22;3161;48.794;9.784;2022-08-03T03:54:44;17.60;99.90
6256;DHT22;3161;48.794;9.784;2022-08-03T03:57:12;17.60;99.90
6256;DHT22;3161;48.794;9.784;2022-08-03T03:59:41;17.60;99.90
6256;DHT22;3161;48.794;9.784;2022-08-03T04:02:10;17.60;99.90
6256;DHT22;3161;48.794;9.784;2022-08-03T04:04:38;17.50;99.90
6256;DHT22;3161;48.794;9.784;2022-08-03T04:07:25;17.50;99.90
6256;DHT22;3161;48.794;9.784;2022-08-03T04:10:19;17.50;99.90
6256;DHT22;3161;48.794;9.784;2022-08-03T04:13:10;17.50;99.90
6256;DHT22;3161;48.794;9.784;2022-08-03T04:15:39;17.50;99.90
6256;DHT22;3161;48.794;9.784;2022-08-03T04:18:12;17.50;99.90
6256;DHT22;3161;48.794;9.784;2022-08-03T04:20:43;17.40;99.90
6256;DHT22;3161;48.794;9.784;2022-08-03T04:23:12;17.40;99.90
6256;DHT22;3161;48.794;9.784;2022-08-03T04:25:41;17.40;99.90
6256;DHT22;3161;48.794;9.784;2022-08-03T04:28:10;17.40;99.90
6256;DHT22;3161;48.794;9.784;2022-08-03T04:30:39;17.40;99.90
6256;DHT22;3161;48.794;9.784;2022-08-03T04:33:09;17.40;99.90
6256;DHT22;3161;48.794;9.784;2022-08-03T04:35:37;17.50;99.90
6256;DHT22;3161;48.794;9.784;2022-08-03T04:38:06;17.40;99.90
6256;DHT22;3161;48.794;9.784;2022-08-03T04:40:35;17.50;99.90
6256;DHT22;3161;48.794;9.784;2022-08-03T04:43:05;17.50;99.90
6256;DHT22;3161;48.794;9.784;2022-08-03T04:45:35;17.50;99.90
6256;DHT22;3161;48.794;9.784;2022-08-03T04:48:03;17.50;99.90
6256;DHT22;3161;48.794;9.784;2022-08-03T04:50:31;17.60;99.90
6256;DHT22;3161;48.794;9.784;2022-08-03T04:52:59;17.60;99.90
6256;DHT22;3161;48.794;9.784;2022-08-03T04:55:28;17.60;99.90
6256;DHT22;3161;48.794;9.784;2022-08-03T04:57:56;17.60;99.90
6256;DHT22;3161;48.794;9.784;2022-08-03T05:00:24;17.70;99.90
6256;DHT22;3161;48.794;9.784;2022-08-03T05:02:53;17.70;99.90
6256;DHT22;3161;48.794;9.784;2022-08-03T05:05:21;17.80;99.90
6256;DHT22;3161;48.794;9.784;2022-08-03T05:07:49;17.80;99.90
6256;DHT22;3161;48.794;9.784;2022-08-03T05:10:17;17.90;99.90
6256;DHT22;3161;48.794;9.784;2022-08-03T05:12:46;17.90;99.90
6256;DHT22;3161;48.794;9.784;2022-08-03T05:15:14;18.00;99.90
6256;DHT22;3161;48.794;9.784;2022-08-03T05:17:42;18.00;99.90
6256;DHT22;3161;48.794;9.784;2022-08-03T05:20:10;18.10;99.90
6256;DHT22;3161;48.794;9.784;2022-08-03T05:22:38;18.10;99.90
6256;DHT22;3161;48.794;9.784;2022-08-03T05:25:06;18.20;99.90
6256;DHT22;3161;48.794;9.784;2022-08-03T05:27:34;18.30;99.90
6256;DHT22;3161;48.794;9.784;2022-08-03T05:30:02;18.30;99.90
6256;DHT22;3161;48.794;9.784;2022-08-03T05:32:30;18.40;99.90
6256;DHT22;3161;48.794;9.784;2022-08-03T05:34:57;18.50;99.90
6256;DHT22;3161;48.794;9.784;2022-08-03T05:37:25;18.60;99.90
6256;DHT22;3161;48.794;9.784;2022-08-03T05:39:52;18.70;99.90
6256;DHT22;3161;48.794;9.784;2022-08-03T05:42:20;18.80;99.90
6256;DHT22;3161;48.794;9.784;2022-08-03T05:44:48;18.90;99.90
6256;DHT22;3161;48.794;9.784;2022-08-03T05:47:15;19.00;99.90
6256;DHT22;3161;48.794;9.784;2022-08-03T05:49:43;19.00;99.90
6256;DHT22;3161;48.794;9.784;2022-08-03T05:52:10;19.10;99.90
6256;DHT22;3161;48.794;9.784;2022-08-03T05:54:38;19.20;99.90
6256;DHT22;3161;48.794;9.784;2022-08-03T05:57:06;19.40;99.90
6256;DHT22;3161;48.794;9.784;2022-08-03T05:59:33;19.50;99.90
6256;DHT22;3161;48.794;9.784;2022-08-03T06:02:01;19.60;99.90
6256;DHT22;3161;48.794;9.784;2022-08-03T06:04:28;19.70;99.90
6256;DHT22;3161;48.794;9.784;2022-08-03T06:06:56;19.90;99.90
6256;DHT22;3161;48.794;9.784;2022-08-03T06:09:23;20.00;99.90
6256;DHT22;3161;48.794;9.784;2022-08-03T06:11:51;20.10;99.90
6256;DHT22;3161;48.794;9.784;2022-08-03T06:14:18;20.20;99.90
6256;DHT22;3161;48.794;9.784;2022-08-03T06:16:47;20.40;99.90
6256;DHT22;3161;48.794;9.784;2022-08-03T06:19:14;20.50;99.90
6256;DHT22;3161;48.794;9.784;2022-08-03T06:21:42;20.60;99.90
6256;DHT22;3161;48.794;9.784;2022-08-03T06:24:09;20.80;99.90
6256;DHT22;3161;48.794;9.784;2022-08-03T06:26:37;20.90;99.90
6256;DHT22;3161;48.794;9.784;2022-08-03T06:29:04;21.00;99.90
6256;DHT22;3161;48.794;9.784;2022-08-03T06:31:32;21.20;99.90
6256;DHT22;3161;48.794;9.784;2022-08-03T06:34:00;21.40;99.90
6256;DHT22;3161;48.794;9.784;2022-08-03T06:36:28;21.50;99.90
6256;DHT22;3161;48.794;9.784;2022-08-03T06:38:58;21.70;99.90
6256;DHT22;3161;48.794;9.784;2022-08-03T06:41:26;21.80;99.90
6256;DHT22;3161;48.794;9.784;2022-08-03T06:43:55;22.00;99.90
6256;DHT22;3161;48.794;9.784;2022-08-03T06:46:22;22.20;99.90
6256;DHT22;3161;48.794;9.784;2022-08-03T06:48:50;22.30;99.90
6256;DHT22;3161;48.794;9.784;2022-08-03T06:51:17;22.40;99.90
6256;DHT22;3161;48.794;9.784;2022-08-03T06:53:45;22.60;99.90
6256;DHT22;3161;48.794;9.784;2022-08-03T06:56:13;22.70;99.90
6256;DHT22;3161;48.794;9.784;2022-08-03T06:58:41;22.90;99.90
6256;DHT22;3161;48.794;9.784;2022-08-03T07:01:08;23.10;99.90
6256;DHT22;3161;48.794;9.784;2022-08-03T07:03:36;23.30;99.90
6256;DHT22;3161;48.794;9.784;2022-08-03T07:06:03;23.50;99.90
6256;DHT22;3161;48.794;9.784;2022-08-03T07:08:31;23.70;99.90
6256;DHT22;3161;48.794;9.784;2022-08-03T07:10:59;24.00;99.90
6256;DHT22;3161;48.794;9.784;2022-08-03T07:13:26;24.40;99.90
6256;DHT22;3161;48.794;9.784;2022-08-03T07:15:54;25.10;99.90
6256;DHT22;3161;48.794;9.784;2022-08-03T07:18:22;26.10;99.90
6256;DHT22;3161;48.794;9.784;2022-08-03T07:20:50;27.10;99.90
6256;DHT22;3161;48.794;9.784;2022-08-03T07:23:17;28.00;99.90
6256;DHT22;3161;48.794;9.784;2022-08-03T07:25:45;28.70;99.90
6256;DHT22;3161;48.794;9.784;2022-08-03T07:28:12;29.00;99.90
6256;DHT22;3161;48.794;9.784;2022-08-03T07:30:40;29.10;99.90
6256;DHT22;3161;48.794;9.784;2022-08-03T07:33:07;28.90;99.30
6256;DHT22;3161;48.794;9.784;2022-08-03T07:35:35;28.70;99.80
6256;DHT22;3161;48.794;9.784;2022-08-03T07:38:03;28.50;99.00
6256;DHT22;3161;48.794;9.784;2022-08-03T07:40:30;28.30;99.10
6256;DHT22;3161;48.794;9.784;2022-08-03T07:42:58;28.20;99.00
6256;DHT22;3161;48.794;9.784;2022-08-03T07:45:26;28.20;99.10
6256;DHT22;3161;48.794;9.784;2022-08-03T07:47:53;28.30;98.50
6256;DHT22;3161;48.794;9.784;2022-08-03T07:50:21;28.30;98.00
6256;DHT22;3161;48.794;9.784;2022-08-03T07:52:49;28.50;98.20
6256;DHT22;3161;48.794;9.784;2022-08-03T07:55:21;28.60;96.70
6256;DHT22;3161;48.794;9.784;2022-08-03T07:58:06;28.90;97.10
6256;DHT22;3161;48.794;9.784;2022-08-03T08:00:35;29.10;95.10
6256;DHT22;3161;48.794;9.784;2022-08-03T08:03:03;29.40;95.50
6256;DHT22;3161;48.794;9.784;2022-08-03T08:05:31;29.70;93.40
6256;DHT22;3161;48.794;9.784;2022-08-03T08:08:00;30.00;90.50
6256;DHT22;3161;48.794;9.784;2022-08-03T08:10:28;30.20;91.70
6256;DHT22;3161;48.794;9.784;2022-08-03T08:12:55;30.40;91.40
6256;DHT22;3161;48.794;9.784;2022-08-03T08:15:23;30.60;89.80
6256;DHT22;3161;48.794;9.784;2022-08-03T08:17:56;30.70;86.00
6256;DHT22;3161;48.794;9.784;2022-08-03T08:20:26;30.90;88.30
6256;DHT22;3161;48.794;9.784;2022-08-03T08:22:58;31.10;86.40
6256;DHT22;3161;48.794;9.784;2022-08-03T08:25:26;31.30;89.10
6256;DHT22;3161;48.794;9.784;2022-08-03T08:27:53;31.50;85.50
6256;DHT22;3161;48.794;9.784;2022-08-03T08:30:22;31.80;84.10
6256;DHT22;3161;48.794;9.784;2022-08-03T08:32:50;32.20;81.80
6256;DHT22;3161;48.794;9.784;2022-08-03T08:35:19;32.60;81.10
6256;DHT22;3161;48.794;9.784;2022-08-03T08:37:46;33.00;78.00
6256;DHT22;3161;48.794;9.784;2022-08-03T08:40:14;33.50;74.40
6256;DHT22;3161;48.794;9.784;2022-08-03T08:42:43;33.80;72.40
6256;DHT22;3161;48.794;9.784;2022-08-03T08:45:12;34.20;69.90
6256;DHT22;3161;48.794;9.784;2022-08-03T08:47:43;34.50;64.00
6256;DHT22;3161;48.794;9.784;2022-08-03T08:50:11;34.60;66.10
6256;DHT22;3161;48.794;9.784;2022-08-03T08:52:40;34.80;64.60
6256;DHT22;3161;48.794;9.784;2022-08-03T08:55:12;35.10;63.70
6256;DHT22;3161;48.794;9.784;2022-08-03T08:57:45;35.30;59.00
6256;DHT22;3161;48.794;9.784;2022-08-03T09:00:14;35.40;58.80
6256;DHT22;3161;48.794;9.784;2022-08-03T09:02:43;35.50;57.20
6256;DHT22;3161;48.794;9.784;2022-08-03T09:05:13;35.50;56.20
6256;DHT22;3161;48.794;9.784;2022-08-03T09:07:41;35.40;57.60
6256;DHT22;3161;48.794;9.784;2022-08-03T09:10:11;35.10;55.70
6256;DHT22;3161;48.794;9.784;2022-08-03T09:12:41;34.80;57.80
6256;DHT22;3161;48.794;9.784;2022-08-03T09:15:23;34.50;54.10
6256;DHT22;3161;48.794;9.784;2022-08-03T09:17:53;33.90;54.80
6256;DHT22;3161;48.794;9.784;2022-08-03T09:20:22;33.40;56.00
6256;DHT22;3161;48.794;9.784;2022-08-03T09:22:59;33.10;57.90
6256;DHT22;3161;48.794;9.784;2022-08-03T09:25:34;33.00;60.70
6256;DHT22;3161;48.794;9.784;2022-08-03T09:28:16;32.90;60.40
6256;DHT22;3161;48.794;9.784;2022-08-03T09:30:56;32.90;60.30
6256;DHT22;3161;48.794;9.784;2022-08-03T09:33:15;33.00;58.50
6256;DHT22;3161;48.794;9.784;2022-08-03T09:35:47;32.90;59.40
6256;DHT22;3161;48.794;9.784;2022-08-03T09:38:19;32.90;59.50
6256;DHT22;3161;48.794;9.784;2022-08-03T09:40:52;33.00;60.50
6256;DHT22;3161;48.794;9.784;2022-08-03T09:43:20;33.00;59.10
6256;DHT22;3161;48.794;9.784;2022-08-03T09:45:50;32.90;58.10
6256;DHT22;3161;48.794;9.784;2022-08-03T09:48:26;32.80;57.20
6256;DHT22;3161;48.794;9.784;2022-08-03T09:51:02;32.90;58.70
6256;DHT22;3161;48.794;9.784;2022-08-03T09:53:26;32.80;56.10
6256;DHT22;3161;48.794;9.784;2022-08-03T09:56:02;32.90;55.50
6256;DHT22;3161;48.794;9.784;2022-08-03T09:58:30;32.90;56.70
6256;DHT22;3161;48.794;9.784;2022-08-03T10:01:03;32.90;56.40
6256;DHT22;3161;48.794;9.784;2022-08-03T10:03:33;32.90;55.30
6256;DHT22;3161;48.794;9.784;2022-08-03T10:06:18;32.80;53.60
6256;DHT22;3161;48.794;9.784;2022-08-03T10:11:34;32.70;49.80
6256;DHT22;3161;48.794;9.784;2022-08-03T10:14:06;32.50;50.70
6256;DHT22;3161;48.794;9.784;2022-08-03T10:16:36;32.50;52.70
6256;DHT22;3161;48.794;9.784;2022-08-03T10:19:05;32.50;52.90
6256;DHT22;3161;48.794;9.784;2022-08-03T10:21:37;32.60;51.50
6256;DHT22;3161;48.794;9.784;2022-08-03T10:24:08;32.60;49.50
6256;DHT22;3161;48.794;9.784;2022-08-03T10:26:38;32.70;48.20
6256;DHT22;3161;48.794;9.784;2022-08-03T10:29:10;32.70;47.90
6256;DHT22;3161;48.794;9.784;2022-08-03T10:31:57;32.70;48.40
6256;DHT22;3161;48.794;9.784;2022-08-03T10:34:33;32.70;50.60
6256;DHT22;3161;48.794;9.784;2022-08-03T10:36:59;32.80;47.90
6256;DHT22;3161;48.794;9.784;2022-08-03T10:39:29;32.90;51.20
6256;DHT22;3161;48.794;9.784;2022-08-03T10:41:57;32.90;51.60
6256;DHT22;3161;48.794;9.784;2022-08-03T10:44:28;32.90;50.00
6256;DHT22;3161;48.794;9.784;2022-08-03T10:46:56;33.00;48.20
6256;DHT22;3161;48.794;9.784;2022-08-03T10:49:24;32.90;49.40
6256;DHT22;3161;48.794;9.784;2022-08-03T10:51:52;32.90;49.80
6256;DHT22;3161;48.794;9.784;2022-08-03T10:54:39;33.00;50.20
6256;DHT22;3161;48.794;9.784;2022-08-03T10:57:51;32.80;49.00
6256;DHT22;3161;48.794;9.784;2022-08-03T11:00:21;32.80;51.70
6256;DHT22;3161;48.794;9.784;2022-08-03T11:03:08;32.80;51.00
6256;DHT22;3161;48.794;9.784;2022-08-03T11:05:47;32.90;52.10
6256;DHT22;3161;48.794;9.784;2022-08-03T11:08:23;32.90;51.60
6256;DHT22;3161;48.794;9.784;2022-08-03T11:11:00;33.00;51.70
6256;DHT22;3161;48.794;9.784;2022-08-03T11:13:25;33.10;51.40
6256;DHT22;3161;48.794;9.784;2022-08-03T11:15:57;33.10;50.70
6256;DHT22;3161;48.794;9.784;2022-08-03T11:18:25;33.10;50.60
6256;DHT22;3161;48.794;9.784;2022-08-03T11:20:55;33.30;50.10
6256;DHT22;3161;48.794;9.784;2022-08-03T11:23:43;33.30;50.00
6256;DHT22;3161;48.794;9.784;2022-08-03T11:26:14;33.40;49.00
6256;DHT22;3161;48.794;9.784;2022-08-03T11:28:43;33.50;48.50
6256;DHT22;3161;48.794;9.784;2022-08-03T11:34:06;33.60;49.70
6256;DHT22;3161;48.794;9.784;2022-08-03T11:39:42;33.60;47.70
6256;DHT22;3161;48.794;9.784;2022-08-03T11:44:56;33.60;49.30
6256;DHT22;3161;48.794;9.784;2022-08-03T11:47:27;33.60;48.40
6256;DHT22;3161;48.794;9.784;2022-08-03T11:49:56;33.60;47.00
6256;DHT22;3161;48.794;9.784;2022-08-03T11:52:26;33.60;45.60
6256;DHT22;3161;48.794;9.784;2022-08-03T11:54:55;33.60;46.30
6256;DHT22;3161;48.794;9.784;2022-08-03T11:57:30;33.60;47.90
6256;DHT22;3161;48.794;9.784;2022-08-03T11:59:58;33.60;47.60
6256;DHT22;3161;48.794;9.784;2022-08-03T12:02:26;33.70;47.30
6256;DHT22;3161;48.794;9.784;2022-08-03T12:04:55;33.70;48.20
6256;DHT22;3161;48.794;9.784;2022-08-03T12:07:26;33.80;47.10
6256;DHT22;3161;48.794;9.784;2022-08-03T12:12:37;33.80;47.40
6256;DHT22;3161;48.794;9.784;2022-08-03T12:15:05;33.90;45.80
6256;DHT22;3161;48.794;9.784;2022-08-03T12:17:35;34.00;45.10
6256;DHT22;3161;48.794;9.784;2022-08-03T12:20:06;34.20;46.40
6256;DHT22;3161;48.794;9.784;2022-08-03T12:22:38;34.60;46.60
6256;DHT22;3161;48.794;9.784;2022-08-03T12:25:07;35.20;44.20
6256;DHT22;3161;48.794;9.784;2022-08-03T12:27:36;35.90;43.00
6256;DHT22;3161;48.794;9.784;2022-08-03T12:30:04;36.30;42.70
6256;DHT22;3161;48.794;9.784;2022-08-03T12:32:32;36.60;42.20
6256;DHT22;3161;48.794;9.784;2022-08-03T12:34:59;36.90;42.70
6256;DHT22;3161;48.794;9.784;2022-08-03T12:37:29;37.40;40.00
6256;DHT22;3161;48.794;9.784;2022-08-03T12:39:58;37.90;40.30
6256;DHT22;3161;48.794;9.784;2022-08-03T12:42:31;38.10;40.90
6256;DHT22;3161;48.794;9.784;2022-08-03T12:44:58;37.80;41.60
6256;DHT22;3161;48.794;9.784;2022-08-03T12:47:26;37.50;42.40
6256;DHT22;3161;48.794;9.784;2022-08-03T12:49:53;37.10;42.30
6256;DHT22;3161;48.794;9.784;2022-08-03T12:52:22;36.50;42.80
6256;DHT22;3161;48.794;9.784;2022-08-03T12:54:59;36.20;44.50
6256;DHT22;3161;48.794;9.784;2022-08-03T12:57:40;35.90;42.40
6256;DHT22;3161;48.794;9.784;2022-08-03T13:00:13;35.70;43.90
6256;DHT22;3161;48.794;9.784;2022-08-03T13:02:41;35.50;43.70
6256;DHT22;3161;48.794;9.784;2022-08-03T13:05:13;35.40;46.30
6256;DHT22;3161;48.794;9.784;2022-08-03T13:07:46;35.40;46.00
6256;DHT22;3161;48.794;9.784;2022-08-03T13:10:11;35.30;45.10
6256;DHT22;3161;48.794;9.784;2022-08-03T13:12:46;35.20;43.40
6256;DHT22;3161;48.794;9.784;2022-08-03T13:15:14;35.20;43.20
6256;DHT22;3161;48.794;9.784;2022-08-03T13:17:42;35.10;45.00
6256;DHT22;3161;48.794;9.784;2022-08-03T13:20:10;35.10;44.30
6256;DHT22;3161;48.794;9.784;2022-08-03T13:22:38;35.20;44.30
6256;DHT22;3161;48.794;9.784;2022-08-03T13:25:06;35.30;44.90
6256;DHT22;3161;48.794;9.784;2022-08-03T13:27:33;35.50;44.50
6256;DHT22;3161;48.794;9.784;2022-08-03T13:30:01;36.00;45.40
6256;DHT22;3161;48.794;9.784;2022-08-03T13:32:30;37.00;42.70
6256;DHT22;3161;48.794;9.784;2022-08-03T13:34:57;39.30;40.80
6256;DHT22;3161;48.794;9.784;2022-08-03T13:37:25;42.40;36.80
6256;DHT22;3161;48.794;9.784;2022-08-03T13:39:53;45.40;33.10
6256;DHT22;3161;48.794;9.784;2022-08-03T13:42:20;47.90;28.30
6256;DHT22;3161;48.794;9.784;2022-08-03T13:44:47;49.60;27.00
6256;DHT22;3161;48.794;9.784;2022-08-03T13:47:15;50.70;26.60
6256;DHT22;3161;48.794;9.784;2022-08-03T13:49:43;51.80;25.60
6256;DHT22;3161;48.794;9.784;2022-08-03T13:52:10;52.90;24.90
6256;DHT22;3161;48.794;9.784;2022-08-03T13:54:38;53.80;23.70
6256;DHT22;3161;48.794;9.784;2022-08-03T13:57:05;54.50;22.20
6256;DHT22;3161;48.794;9.784;2022-08-03T13:59:33;55.00;22.40
6256;DHT22;3161;48.794;9.784;2022-08-03T14:02:00;55.60;21.40
6256;DHT22;3161;48.794;9.784;2022-08-03T14:04:28;55.90;21.20
6256;DHT22;3161;48.794;9.784;2022-08-03T14:06:56;56.30;21.30
6256;DHT22;3161;48.794;9.784;2022-08-03T14:09:23;56.50;20.70
6256;DHT22;3161;48.794;9.784;2022-08-03T14:11:51;56.80;20.70
6256;DHT22;3161;48.794;9.784;2022-08-03T14:14:19;57.00;19.80
6256;DHT22;3161;48.794;9.784;2022-08-03T14:16:46;56.90;20.40
6256;DHT22;3161;48.794;9.784;2022-08-03T14:19:14;56.80;19.70
6256;DHT22;3161;48.794;9.784;2022-08-03T14:21:41;56.20;20.00
6256;DHT22;3161;48.794;9.784;2022-08-03T14:24:09;55.20;19.90
6256;DHT22;3161;48.794;9.784;2022-08-03T14:26:37;53.20;21.40
6256;DHT22;3161;48.794;9.784;2022-08-03T14:29:04;50.60;22.60
6256;DHT22;3161;48.794;9.784;2022-08-03T14:31:31;48.20;24.40
6256;DHT22;3161;48.794;9.784;2022-08-03T14:33:59;46.10;25.70
6256;DHT22;3161;48.794;9.784;2022-08-03T14:36:27;44.30;26.40
6256;DHT22;3161;48.794;9.784;2022-08-03T14:38:54;43.00;28.40
6256;DHT22;3161;48.794;9.784;2022-08-03T14:41:22;41.90;28.80
6256;DHT22;3161;48.794;9.784;2022-08-03T14:43:49;40.80;30.10
6256;DHT22;3161;48.794;9.784;2022-08-03T14:46:17;40.00;30.10
6256;DHT22;3161;48.794;9.784;2022-08-03T14:48:45;39.20;31.00
6256;DHT22;3161;48.794;9.784;2022-08-03T14:51:12;38.70;32.90
6256;DHT22;3161;48.794;9.784;2022-08-03T14:53:40;38.30;33.20
6256;DHT22;3161;48.794;9.784;2022-08-03T14:56:07;37.90;33.50
6256;DHT22;3161;48.794;9.784;2022-08-03T14:58:35;37.60;33.90
6256;DHT22;3161;48.794;9.784;2022-08-03T15:01:03;37.30;34.10
6256;DHT22;3161;48.794;9.784;2022-08-03T15:03:30;37.00;34.10
6256;DHT22;3161;48.794;9.784;2022-08-03T15:05:58;36.70;33.70
6256;DHT22;3161;48.794;9.784;2022-08-03T15:08:26;36.40;35.30
6256;DHT22;3161;48.794;9.784;2022-08-03T15:10:54;36.10;35.30
6256;DHT22;3161;48.794;9.784;2022-08-03T15:13:21;35.80;35.70
6256;DHT22;3161;48.794;9.784;2022-08-03T15:15:50;35.60;36.10
6256;DHT22;3161;48.794;9.784;2022-08-03T15:18:18;35.50;36.00
6256;DHT22;3161;48.794;9.784;2022-08-03T15:20:46;35.30;35.90
6256;DHT22;3161;48.794;9.784;2022-08-03T15:23:15;35.10;37.00
6256;DHT22;3161;48.794;9.784;2022-08-03T15:25:44;34.90;36.60
6256;DHT22;3161;48.794;9.784;2022-08-03T15:28:12;34.80;36.20
6256;DHT22;3161;48.794;9.784;2022-08-03T15:30:40;34.60;36.90
6256;DHT22;3161;48.794;9.784;2022-08-03T15:33:08;34.50;36.60
6256;DHT22;3161;48.794;9.784;2022-08-03T15:35:36;34.40;36.90
6256;DHT22;3161;48.794;9.784;2022-08-03T15:38:03;34.30;36.20
6256;DHT22;3161;48.794;9.784;2022-08-03T15:40:31;34.20;35.50
6256;DHT22;3161;48.794;9.784;2022-08-03T15:42:59;34.00;36.30
6256;DHT22;3161;48.794;9.784;2022-08-03T15:45:27;33.90;37.40
6256;DHT22;3161;48.794;9.784;2022-08-03T15:47:55;33.90;37.10
6256;DHT22;3161;48.794;9.784;2022-08-03T15:50:22;33.80;37.50
6256;DHT22;3161;48.794;9.784;2022-08-03T15:52:50;33.60;37.80
6256;DHT22;3161;48.794;9.784;2022-08-03T15:55:17;33.50;37.90
6256;DHT22;3161;48.794;9.784;2022-08-03T15:57:45;33.50;37.80
6256;DHT22;3161;48.794;9.784;2022-08-03T16:00:13;33.50;37.30
6256;DHT22;3161;48.794;9.784;2022-08-03T16:02:41;33.50;37.40
6256;DHT22;3161;48.794;9.784;2022-08-03T16:05:09;33.40;36.70
6256;DHT22;3161;48.794;9.784;2022-08-03T16:07:36;33.40;36.90
6256;DHT22;3161;48.794;9.784;2022-08-03T16:10:13;33.30;37.30
6256;DHT22;3161;48.794;9.784;2022-08-03T16:12:42;33.20;38.20
6256;DHT22;3161;48.794;9.784;2022-08-03T16:15:11;33.20;38.10
6256;DHT22;3161;48.794;9.784;2022-08-03T16:17:40;33.20;37.40
6256;DHT22;3161;48.794;9.784;2022-08-03T16:20:09;33.20;37.40
6256;DHT22;3161;48.794;9.784;2022-08-03T16:22:47;33.10;37.50
6256;DHT22;3161;48.794;9.784;2022-08-03T16:25:16;33.10;37.60
6256;DHT22;3161;48.794;9.784;2022-08-03T16:27:44;33.00;37.70
6256;DHT22;3161;48.794;9.784;2022-08-03T16:30:13;33.00;37.60
6256;DHT22;3161;48.794;9.784;2022-08-03T16:32:43;32.90;37.00
6256;DHT22;3161;48.794;9.784;2022-08-03T16:35:11;32.90;36.70
6256;DHT22;3161;48.794;9.784;2022-08-03T16:37:39;32.90;37.40
6256;DHT22;3161;48.794;9.784;2022-08-03T16:40:10;32.80;37.70
6256;DHT22;3161;48.794;9.784;2022-08-03T16:42:38;32.80;37.70